sensor_id;sensor_type;location;lat;lon;timestamp;pressure;altitude;pressure_sealevel;temperature;humidity
51081;BME280;37130;55.670;37.596;2023-02-02T00:01:34;98427.69;;;-1.37;87.78
51081;BME280;37130;55.670;37.596;2023-02-02T00:04:02;98498.53;;;-0.82;87.77
51081;BME280;37130;55.670;37.596;2023-02-02T00:06:30;98499.34;;;-0.78;87.37
51081;BME280;37130;55.670;37.596;2023-02-02T00:09:00;98511.44;;;-0.79;86.89
51081;BME280;37130;55.670;37.596;2023-02-02T00:11:28;98471.47;;;-1.17;86.74
51081;BME280;37130;55.670;37.596;2023-02-02T00:13:55;98428.84;;;-1.51;86.90
51081;BME280;37130;55.670;37.596;2023-02-02T00:18:55;98501.06;;;-0.79;87.03
51081;BME280;37130;55.670;37.596;2023-02-02T00:21:23;98415.25;;;-1.19;86.44
51081;BME280;37130;55.670;37.596;2023-02-02T00:23:51;98494.94;;;-0.76;86.29
51081;BME280;37130;55.670;37.596;2023-02-02T00:26:19;98493.53;;;-0.93;86.15
51081;BME280;37130;55.670;37.596;2023-02-02T00:28:47;98496.41;;;-1.06;86.64
51081;BME280;37130;55.670;37.596;2023-02-02T00:31:15;98487.00;;;-1.12;86.41
51081;BME280;37130;55.670;37.596;2023-02-02T00:33:47;98470.84;;;-1.28;86.53
51081;BME280;37130;55.670;37.596;2023-02-02T00:36:17;98487.00;;;-1.12;86.33
51081;BME280;37130;55.670;37.596;2023-02-02T00:38:47;98491.38;;;-1.16;86.32
51081;BME280;37130;55.670;37.596;2023-02-02T00:41:15;98309.88;;;-2.23;86.23
51081;BME280;37130;55.670;37.596;2023-02-02T00:43:43;98492.31;;;-1.20;86.02
51081;BME280;37130;55.670;37.596;2023-02-02T00:46:16;98485.50;;;-1.27;86.08
51081;BME280;37130;55.670;37.596;2023-02-02T00:48:45;98482.03;;;-1.26;85.85
51081;BME280;37130;55.670;37.596;2023-02-02T00:51:12;98493.09;;;-1.16;86.06
51081;BME280;37130;55.670;37.596;2023-02-02T00:53:40;98492.91;;;-1.05;85.76
51081;BME280;37130;55.670;37.596;2023-02-02T00:56:08;98410.59;;;-1.48;85.70
51081;BME280;37130;55.670;37.596;2023-02-02T00:58:36;98432.88;;;-1.37;85.50
51081;BME280;37130;55.670;37.596;2023-02-02T01:01:03;98334.66;;;-2.06;84.98
51081;BME280;37130;55.670;37.596;2023-02-02T01:03:31;98418.69;;;-1.65;84.56
51081;BME280;37130;55.670;37.596;2023-02-02T01:05:58;98488.81;;;-1.19;85.29
51081;BME280;37130;55.670;37.596;2023-02-02T01:08:25;98429.06;;;-1.64;84.68
51081;BME280;37130;55.670;37.596;2023-02-02T01:10:53;98390.50;;;-1.87;84.93
51081;BME280;37130;55.670;37.596;2023-02-02T01:13:21;98478.91;;;-1.45;84.98
51081;BME280;37130;55.670;37.596;2023-02-02T01:15:48;98477.25;;;-1.49;84.78
51081;BME280;37130;55.670;37.596;2023-02-02T01:18:21;98491.22;;;-1.56;84.82
51081;BME280;37130;55.670;37.596;2023-02-02T01:21:03;98486.16;;;-1.64;84.17
51081;BME280;37130;55.670;37.596;2023-02-02T01:23:32;98483.56;;;-1.64;84.67
51081;BME280;37130;55.670;37.596;2023-02-02T01:26:03;98479.34;;;-1.69;84.20
51081;BME280;37130;55.670;37.596;2023-02-02T01:28:31;98474.44;;;-1.88;84.39
51081;BME280;37130;55.670;37.596;2023-02-02T01:31:07;98485.47;;;-1.75;84.06
51081;BME280;37130;55.670;37.596;2023-02-02T01:33:36;98487.25;;;-1.77;84.09
51081;BME280;37130;55.670;37.596;2023-02-02T01:36:07;98456.34;;;-1.94;84.55
51081;BME280;37130;55.670;37.596;2023-02-02T01:38:35;98483.84;;;-1.81;84.39
51081;BME280;37130;55.670;37.596;2023-02-02T01:41:03;98409.50;;;-2.39;84.04
51081;BME280;37130;55.670;37.596;2023-02-02T01:46:15;98478.66;;;-1.82;84.32
51081;BME280;37130;55.670;37.596;2023-02-02T01:49:12;98476.94;;;-1.82;84.17
51081;BME280;37130;55.670;37.596;2023-02-02T01:51:48;98478.81;;;-1.91;84.10
51081;BME280;37130;55.670;37.596;2023-02-02T01:54:41;98483.97;;;-1.90;83.91
51081;BME280;37130;55.670;37.596;2023-02-02T01:57:29;98289.53;;;-3.04;83.87
51081;BME280;37130;55.670;37.596;2023-02-02T02:00:00;98495.16;;;-1.86;84.32
51081;BME280;37130;55.670;37.596;2023-02-02T02:02:41;98489.97;;;-1.86;84.26
51081;BME280;37130;55.670;37.596;2023-02-02T02:05:10;98361.47;;;-2.63;83.90
51081;BME280;37130;55.670;37.596;2023-02-02T02:07:39;98481.22;;;-1.79;84.17
51081;BME280;37130;55.670;37.596;2023-02-02T02:10:10;98478.44;;;-1.68;83.96
51081;BME280;37130;55.670;37.596;2023-02-02T02:12:38;98467.19;;;-1.67;83.71
51081;BME280;37130;55.670;37.596;2023-02-02T02:15:06;98485.38;;;-1.70;83.73
51081;BME280;37130;55.670;37.596;2023-02-02T02:18:07;98487.28;;;-1.80;83.88
51081;BME280;37130;55.670;37.596;2023-02-02T02:23:59;98493.31;;;-1.78;83.85
51081;BME280;37130;55.670;37.596;2023-02-02T02:27:13;98495.81;;;-1.72;84.14
51081;BME280;37130;55.670;37.596;2023-02-02T02:38:01;98450.47;;;-2.04;83.48
51081;BME280;37130;55.670;37.596;2023-02-02T02:40:41;98435.81;;;-2.06;82.94
51081;BME280;37130;55.670;37.596;2023-02-02T02:43:19;98480.34;;;-1.80;83.72
51081;BME280;37130;55.670;37.596;2023-02-02T02:45:52;98279.06;;;-2.97;83.31
51081;BME280;37130;55.670;37.596;2023-02-02T02:48:20;98462.31;;;-1.87;82.76
51081;BME280;37130;55.670;37.596;2023-02-02T02:50:48;98493.22;;;-1.73;82.79
51081;BME280;37130;55.670;37.596;2023-02-02T02:53:19;98497.50;;;-1.69;82.69
51081;BME280;37130;55.670;37.596;2023-02-02T02:55:53;98490.72;;;-1.78;82.38
51081;BME280;37130;55.670;37.596;2023-02-02T02:58:42;98504.63;;;-1.82;83.00
51081;BME280;37130;55.670;37.596;2023-02-02T03:01:38;98494.16;;;-1.78;82.85
51081;BME280;37130;55.670;37.596;2023-02-02T03:04:26;98495.03;;;-1.79;82.71
51081;BME280;37130;55.670;37.596;2023-02-02T03:07:01;98505.41;;;-1.77;82.95
51081;BME280;37130;55.670;37.596;2023-02-02T03:09:36;98495.03;;;-1.77;82.33
51081;BME280;37130;55.670;37.596;2023-02-02T03:12:06;98497.59;;;-1.75;82.55
51081;BME280;37130;55.670;37.596;2023-02-02T03:14:35;98491.47;;;-1.71;81.78
51081;BME280;37130;55.670;37.596;2023-02-02T03:17:03;98448.72;;;-2.02;81.59
51081;BME280;37130;55.670;37.596;2023-02-02T03:19:30;98476.97;;;-1.85;81.89
51081;BME280;37130;55.670;37.596;2023-02-02T03:21:59;98486.50;;;-1.85;82.03
51081;BME280;37130;55.670;37.596;2023-02-02T03:24:26;98492.38;;;-1.72;81.57
51081;BME280;37130;55.670;37.596;2023-02-02T03:26:54;98426.22;;;-2.01;81.80
51081;BME280;37130;55.670;37.596;2023-02-02T03:29:22;98495.56;;;-1.58;81.67
51081;BME280;37130;55.670;37.596;2023-02-02T03:31:49;98496.34;;;-1.51;81.78
51081;BME280;37130;55.670;37.596;2023-02-02T03:34:17;98406.25;;;-1.98;81.86
51081;BME280;37130;55.670;37.596;2023-02-02T03:36:45;98505.69;;;-1.41;81.52
51081;BME280;37130;55.670;37.596;2023-02-02T03:39:12;98451.81;;;-1.78;81.37
51081;BME280;37130;55.670;37.596;2023-02-02T03:41:40;98500.59;;;-1.47;82.21
51081;BME280;37130;55.670;37.596;2023-02-02T03:44:08;98504.81;;;-1.42;81.82
51081;BME280;37130;55.670;37.596;2023-02-02T03:46:35;98505.63;;;-1.38;81.44
51081;BME280;37130;55.670;37.596;2023-02-02T03:49:03;98502.09;;;-1.34;81.91
51081;BME280;37130;55.670;37.596;2023-02-02T03:51:30;98363.44;;;-2.20;81.49
51081;BME280;37130;55.670;37.596;2023-02-02T03:53:58;98339.38;;;-2.31;81.46
51081;BME280;37130;55.670;37.596;2023-02-02T03:56:25;98504.72;;;-1.36;81.29
51081;BME280;37130;55.670;37.596;2023-02-02T03:58:53;98506.63;;;-1.45;81.71
51081;BME280;37130;55.670;37.596;2023-02-02T04:01:28;98479.16;;;-1.59;81.90
51081;BME280;37130;55.670;37.596;2023-02-02T04:03:56;98505.81;;;-1.49;81.14
51081;BME280;37130;55.670;37.596;2023-02-02T04:06:25;98511.97;;;-1.55;80.70
51081;BME280;37130;55.670;37.596;2023-02-02T04:08:52;98518.16;;;-1.63;81.26
51081;BME280;37130;55.670;37.596;2023-02-02T04:11:20;98488.94;;;-1.74;81.07
51081;BME280;37130;55.670;37.596;2023-02-02T04:13:48;98504.28;;;-1.61;80.86
51081;BME280;37130;55.670;37.596;2023-02-02T04:16:15;98483.78;;;-1.78;81.32
51081;BME280;37130;55.670;37.596;2023-02-02T04:18:43;98513.81;;;-1.63;81.27
51081;BME280;37130;55.670;37.596;2023-02-02T04:21:11;98514.72;;;-1.64;81.20
51081;BME280;37130;55.670;37.596;2023-02-02T04:23:39;98514.69;;;-1.62;81.50
51081;BME280;37130;55.670;37.596;2023-02-02T04:26:07;98454.81;;;-2.06;81.75
51081;BME280;37130;55.670;37.596;2023-02-02T04:28:34;98401.69;;;-2.36;81.65
51081;BME280;37130;55.670;37.596;2023-02-02T04:31:02;98275.59;;;-2.94;81.65
51081;BME280;37130;55.670;37.596;2023-02-02T04:33:30;98324.63;;;-2.82;81.28
51081;BME280;37130;55.670;37.596;2023-02-02T04:35:57;98517.16;;;-1.55;81.50
51081;BME280;37130;55.670;37.596;2023-02-02T04:38:25;98493.94;;;-1.62;81.87
51081;BME280;37130;55.670;37.596;2023-02-02T04:40:53;98411.84;;;-2.22;81.49
51081;BME280;37130;55.670;37.596;2023-02-02T04:43:20;98384.41;;;-2.35;81.67
51081;BME280;37130;55.670;37.596;2023-02-02T04:45:54;98515.41;;;-1.54;81.38
51081;BME280;37130;55.670;37.596;2023-02-02T04:48:21;98461.41;;;-1.86;81.71
51081;BME280;37130;55.670;37.596;2023-02-02T04:50:49;98524.91;;;-1.51;81.85
51081;BME280;37130;55.670;37.596;2023-02-02T04:53:16;98501.00;;;-1.73;81.45
51081;BME280;37130;55.670;37.596;2023-02-02T04:55:44;98516.53;;;-1.69;82.33
51081;BME280;37130;55.670;37.596;2023-02-02T04:58:11;98528.66;;;-1.69;82.70
51081;BME280;37130;55.670;37.596;2023-02-02T05:00:39;98503.91;;;-1.92;82.55
51081;BME280;37130;55.670;37.596;2023-02-02T05:03:07;98453.28;;;-2.19;83.13
51081;BME280;37130;55.670;37.596;2023-02-02T05:05:34;98528.59;;;-1.66;82.79
51081;BME280;37130;55.670;37.596;2023-02-02T05:08:02;98501.97;;;-1.79;82.84
51081;BME280;37130;55.670;37.596;2023-02-02T05:10:30;98526.06;;;-1.71;83.32
51081;BME280;37130;55.670;37.596;2023-02-02T05:12:58;98533.00;;;-1.71;82.99
51081;BME280;37130;55.670;37.596;2023-02-02T05:15:25;98533.06;;;-1.76;83.39
51081;BME280;37130;55.670;37.596;2023-02-02T05:17:53;98546.03;;;-1.74;83.25
51081;BME280;37130;55.670;37.596;2023-02-02T05:20:20;98366.88;;;-2.78;82.86
51081;BME280;37130;55.670;37.596;2023-02-02T05:22:48;98538.25;;;-1.74;83.83
51081;BME280;37130;55.670;37.596;2023-02-02T05:25:16;98539.97;;;-1.75;83.24
51081;BME280;37130;55.670;37.596;2023-02-02T05:27:45;98536.53;;;-1.77;83.28
51081;BME280;37130;55.670;37.596;2023-02-02T05:30:13;98522.84;;;-1.87;83.77
51081;BME280;37130;55.670;37.596;2023-02-02T05:32:41;98551.22;;;-1.76;83.39
51081;BME280;37130;55.670;37.596;2023-02-02T05:35:09;98539.19;;;-1.80;83.80
51081;BME280;37130;55.670;37.596;2023-02-02T05:37:36;98558.94;;;-1.70;83.36
51081;BME280;37130;55.670;37.596;2023-02-02T05:40:04;98521.94;;;-1.84;83.60
51081;BME280;37130;55.670;37.596;2023-02-02T05:42:32;98545.06;;;-1.67;83.48
51081;BME280;37130;55.670;37.596;2023-02-02T05:44:59;98542.38;;;-1.63;83.08
51081;BME280;37130;55.670;37.596;2023-02-02T05:47:27;98539.72;;;-1.58;83.12
51081;BME280;37130;55.670;37.596;2023-02-02T05:49:55;98475.56;;;-2.04;83.18
51081;BME280;37130;55.670;37.596;2023-02-02T05:52:23;98533.56;;;-1.52;83.06
51081;BME280;37130;55.670;37.596;2023-02-02T05:54:51;98548.16;;;-1.44;83.56
51081;BME280;37130;55.670;37.596;2023-02-02T05:57:19;98438.47;;;-2.12;83.09
51081;BME280;37130;55.670;37.596;2023-02-02T05:59:46;98543.03;;;-1.48;83.13
51081;BME280;37130;55.670;37.596;2023-02-02T06:02:14;98555.03;;;-1.41;83.52
51081;BME280;37130;55.670;37.596;2023-02-02T06:04:42;98553.22;;;-1.36;83.00
51081;BME280;37130;55.670;37.596;2023-02-02T06:07:10;98546.47;;;-1.46;82.73
51081;BME280;37130;55.670;37.596;2023-02-02T06:09:38;98540.53;;;-1.56;82.53
51081;BME280;37130;55.670;37.596;2023-02-02T06:12:06;98552.56;;;-1.50;82.47
51081;BME280;37130;55.670;37.596;2023-02-02T06:14:33;98531.13;;;-1.63;82.50
51081;BME280;37130;55.670;37.596;2023-02-02T06:17:01;98570.44;;;-1.30;82.30
51081;BME280;37130;55.670;37.596;2023-02-02T06:19:28;98547.91;;;-1.30;82.43
51081;BME280;37130;55.670;37.596;2023-02-02T06:21:56;98561.50;;;-1.14;82.30
51081;BME280;37130;55.670;37.596;2023-02-02T06:24:24;98534.97;;;-1.33;81.79
51081;BME280;37130;55.670;37.596;2023-02-02T06:26:51;98454.53;;;-1.86;81.67
51081;BME280;37130;55.670;37.596;2023-02-02T06:29:19;98578.88;;;-1.18;82.02
51081;BME280;37130;55.670;37.596;2023-02-02T06:31:46;98565.78;;;-1.13;82.50
51081;BME280;37130;55.670;37.596;2023-02-02T06:34:14;98568.50;;;-1.19;82.37
51081;BME280;37130;55.670;37.596;2023-02-02T06:36:41;98557.06;;;-1.09;81.76
51081;BME280;37130;55.670;37.596;2023-02-02T06:39:09;98568.31;;;-1.07;81.71
51081;BME280;37130;55.670;37.596;2023-02-02T06:41:37;98562.22;;;-1.07;81.78
51081;BME280;37130;55.670;37.596;2023-02-02T06:44:05;98562.09;;;-1.00;81.40
51081;BME280;37130;55.670;37.596;2023-02-02T06:46:33;98362.53;;;-2.21;81.34
51081;BME280;37130;55.670;37.596;2023-02-02T06:49:00;98559.53;;;-1.01;81.64
51081;BME280;37130;55.670;37.596;2023-02-02T06:51:28;98561.22;;;-0.99;81.01
51081;BME280;37130;55.670;37.596;2023-02-02T06:53:55;98547.72;;;-1.19;81.56
51081;BME280;37130;55.670;37.596;2023-02-02T06:56:25;98545.13;;;-1.21;81.34
51081;BME280;37130;55.670;37.596;2023-02-02T06:58:52;98574.34;;;-1.06;81.16
51081;BME280;37130;55.670;37.596;2023-02-02T07:01:20;98482.53;;;-1.55;81.45
51081;BME280;37130;55.670;37.596;2023-02-02T07:03:48;98564.63;;;-0.95;81.26
51081;BME280;37130;55.670;37.596;2023-02-02T07:06:20;98573.91;;;-0.82;81.30
51081;BME280;37130;55.670;37.596;2023-02-02T07:08:49;98579.91;;;-0.78;81.11
51081;BME280;37130;55.670;37.596;2023-02-02T07:11:30;98537.78;;;-0.96;81.47
51081;BME280;37130;55.670;37.596;2023-02-02T07:14:02;98583.94;;;-0.63;81.31
51081;BME280;37130;55.670;37.596;2023-02-02T07:16:29;98582.13;;;-0.58;81.08
51081;BME280;37130;55.670;37.596;2023-02-02T07:18:58;98574.22;;;-0.52;80.71
51081;BME280;37130;55.670;37.596;2023-02-02T07:21:26;98446.91;;;-1.45;80.70
51081;BME280;37130;55.670;37.596;2023-02-02T07:24:02;98587.66;;;-0.75;81.35
51081;BME280;37130;55.670;37.596;2023-02-02T07:26:30;98490.41;;;-1.10;80.83
51081;BME280;37130;55.670;37.596;2023-02-02T07:28:57;98591.50;;;-0.50;80.67
51081;BME280;37130;55.670;37.596;2023-02-02T07:31:25;98583.75;;;-0.53;80.40
51081;BME280;37130;55.670;37.596;2023-02-02T07:33:53;98404.78;;;-1.61;80.41
51081;BME280;37130;55.670;37.596;2023-02-02T07:36:22;98581.09;;;-0.50;79.90
51081;BME280;37130;55.670;37.596;2023-02-02T07:38:51;98507.38;;;-0.92;79.95
51081;BME280;37130;55.670;37.596;2023-02-02T07:41:20;98433.00;;;-1.41;79.29
51081;BME280;37130;55.670;37.596;2023-02-02T07:43:48;98580.22;;;-0.49;79.67
51081;BME280;37130;55.670;37.596;2023-02-02T07:46:17;98574.13;;;-0.48;80.01
51081;BME280;37130;55.670;37.596;2023-02-02T07:48:44;98530.69;;;-0.86;79.83
51081;BME280;37130;55.670;37.596;2023-02-02T07:51:14;98592.47;;;-0.55;79.67
51081;BME280;37130;55.670;37.596;2023-02-02T07:53:48;98555.94;;;-0.94;79.28
51081;BME280;37130;55.670;37.596;2023-02-02T07:56:21;98519.28;;;-1.27;79.55
51081;BME280;37130;55.670;37.596;2023-02-02T07:58:54;98396.91;;;-2.06;79.26
51081;BME280;37130;55.670;37.596;2023-02-02T08:01:22;98594.97;;;-0.97;79.80
51081;BME280;37130;55.670;37.596;2023-02-02T08:03:53;98593.25;;;-0.98;79.62
51081;BME280;37130;55.670;37.596;2023-02-02T08:06:28;98604.53;;;-0.99;79.48
51081;BME280;37130;55.670;37.596;2023-02-02T08:08:58;98499.91;;;-1.57;79.08
51081;BME280;37130;55.670;37.596;2023-02-02T08:11:26;98578.25;;;-0.84;79.27
51081;BME280;37130;55.670;37.596;2023-02-02T08:13:57;98582.53;;;-0.80;79.06
51081;BME280;37130;55.670;37.596;2023-02-02T08:16:26;98586.75;;;-0.73;79.55
51081;BME280;37130;55.670;37.596;2023-02-02T08:18:54;98572.75;;;-0.65;78.87
51081;BME280;37130;55.670;37.596;2023-02-02T08:21:22;98586.50;;;-0.60;78.25
51081;BME280;37130;55.670;37.596;2023-02-02T08:23:51;98596.44;;;-0.37;78.52
51081;BME280;37130;55.670;37.596;2023-02-02T08:26:25;98591.72;;;-0.18;78.58
51081;BME280;37130;55.670;37.596;2023-02-02T08:28:56;98594.22;;;-0.12;77.99
51081;BME280;37130;55.670;37.596;2023-02-02T08:31:29;98612.28;;;-0.05;78.34
51081;BME280;37130;55.670;37.596;2023-02-02T08:33:57;98596.81;;;-0.12;77.67
51081;BME280;37130;55.670;37.596;2023-02-02T08:36:27;98578.94;;;-0.29;77.43
51081;BME280;37130;55.670;37.596;2023-02-02T08:38:55;98585.13;;;-0.33;77.50
51081;BME280;37130;55.670;37.596;2023-02-02T08:41:28;98590.25;;;-0.32;77.63
51081;BME280;37130;55.670;37.596;2023-02-02T08:43:56;98609.25;;;-0.27;77.57
51081;BME280;37130;55.670;37.596;2023-02-02T08:46:24;98594.53;;;-0.28;77.27
51081;BME280;37130;55.670;37.596;2023-02-02T08:48:52;98589.25;;;-0.23;77.43
51081;BME280;37130;55.670;37.596;2023-02-02T08:51:19;98593.47;;;-0.17;76.59
51081;BME280;37130;55.670;37.596;2023-02-02T08:53:47;98450.50;;;-1.07;76.69
51081;BME280;37130;55.670;37.596;2023-02-02T08:56:20;98588.94;;;-0.09;76.91
51081;BME280;37130;55.670;37.596;2023-02-02T08:58:53;98583.56;;;0.00;76.17
51081;BME280;37130;55.670;37.596;2023-02-02T09:01:23;98589.72;;;-0.04;75.68
51081;BME280;37130;55.670;37.596;2023-02-02T09:03:55;98582.97;;;-0.13;75.87
51081;BME280;37130;55.670;37.596;2023-02-02T09:06:32;98586.78;;;0.11;76.53
51081;BME280;37130;55.670;37.596;2023-02-02T09:09:00;98578.72;;;0.22;75.72
51081;BME280;37130;55.670;37.596;2023-02-02T09:11:28;98478.00;;;-0.52;75.55
51081;BME280;37130;55.670;37.596;2023-02-02T09:13:57;98588.81;;;-0.03;75.48
51081;BME280;37130;55.670;37.596;2023-02-02T09:16:26;98572.56;;;-0.14;75.29
51081;BME280;37130;55.670;37.596;2023-02-02T09:18:55;98510.84;;;-0.48;75.09
51081;BME280;37130;55.670;37.596;2023-02-02T09:21:23;98389.28;;;-1.19;75.01
51081;BME280;37130;55.670;37.596;2023-02-02T09:23:52;98492.78;;;-0.56;75.90
51081;BME280;37130;55.670;37.596;2023-02-02T09:26:26;98597.06;;;0.17;75.50
51081;BME280;37130;55.670;37.596;2023-02-02T09:28:57;98581.34;;;0.20;74.53
51081;BME280;37130;55.670;37.596;2023-02-02T09:31:25;98568.56;;;0.11;74.43
51081;BME280;37130;55.670;37.596;2023-02-02T09:33:53;98592.59;;;0.24;74.10
51081;BME280;37130;55.670;37.596;2023-02-02T09:36:22;98560.44;;;0.25;74.26
51081;BME280;37130;55.670;37.596;2023-02-02T09:38:51;98589.63;;;0.39;73.95
51081;BME280;37130;55.670;37.596;2023-02-02T09:52:21;98586.91;;;0.05;74.73
51081;BME280;37130;55.670;37.596;2023-02-02T09:54:55;98575.88;;;-0.06;74.45
51081;BME280;37130;55.670;37.596;2023-02-02T09:57:29;98583.75;;;-0.11;74.20
51081;BME280;37130;55.670;37.596;2023-02-02T09:59:57;98416.84;;;-1.12;74.13
51081;BME280;37130;55.670;37.596;2023-02-02T10:02:52;98573.44;;;-0.14;74.45
51081;BME280;37130;55.670;37.596;2023-02-02T10:05:26;98557.75;;;-0.11;74.65
51081;BME280;37130;55.670;37.596;2023-02-02T10:07:59;98579.31;;;-0.06;74.07
51081;BME280;37130;55.670;37.596;2023-02-02T10:10:33;98577.72;;;-0.11;74.00
51081;BME280;37130;55.670;37.596;2023-02-02T10:13:21;98569.97;;;-0.14;74.06
51081;BME280;37130;55.670;37.596;2023-02-02T10:16:14;98560.94;;;0.02;74.32
51081;BME280;37130;55.670;37.596;2023-02-02T10:19:09;98556.25;;;0.18;74.29
51081;BME280;37130;55.670;37.596;2023-02-02T10:24:27;98564.78;;;0.25;73.41
51081;BME280;37130;55.670;37.596;2023-02-02T10:27:03;98538.19;;;0.12;73.37
51081;BME280;37130;55.670;37.596;2023-02-02T10:29:46;98561.94;;;0.35;73.40
51081;BME280;37130;55.670;37.596;2023-02-02T10:32:22;98573.19;;;0.36;72.96
51081;BME280;37130;55.670;37.596;2023-02-02T10:41:25;98484.59;;;0.02;73.51
51081;BME280;37130;55.670;37.596;2023-02-02T10:46:46;98545.41;;;0.72;73.51
51081;BME280;37130;55.670;37.596;2023-02-02T10:52:17;98559.38;;;0.70;72.73
51081;BME280;37130;55.670;37.596;2023-02-02T11:00:26;98558.34;;;0.77;72.98
51081;BME280;37130;55.670;37.596;2023-02-02T11:02:56;98558.59;;;0.66;72.17
51081;BME280;37130;55.670;37.596;2023-02-02T11:05:27;98502.81;;;0.39;72.67
51081;BME280;37130;55.670;37.596;2023-02-02T11:08:44;98497.47;;;0.45;72.61
51081;BME280;37130;55.670;37.596;2023-02-02T11:11:19;98541.59;;;0.87;72.53
51081;BME280;37130;55.670;37.596;2023-02-02T11:13:58;98540.41;;;0.64;71.83
51081;BME280;37130;55.670;37.596;2023-02-02T11:16:31;98459.31;;;0.08;72.67
51081;BME280;37130;55.670;37.596;2023-02-02T11:19:29;98540.63;;;0.55;72.56
51081;BME280;37130;55.670;37.596;2023-02-02T11:22:00;98545.22;;;0.44;72.49
51081;BME280;37130;55.670;37.596;2023-02-02T11:24:43;98557.31;;;0.48;73.13
51081;BME280;37130;55.670;37.596;2023-02-02T11:27:29;98557.38;;;0.45;72.58
51081;BME280;37130;55.670;37.596;2023-02-02T11:29:58;98464.38;;;-0.23;72.53
51081;BME280;37130;55.670;37.596;2023-02-02T11:32:31;98569.50;;;0.46;72.42
51081;BME280;37130;55.670;37.596;2023-02-02T11:35:12;98577.31;;;0.46;72.37
51081;BME280;37130;55.670;37.596;2023-02-02T11:38:07;98567.25;;;0.31;72.48
51081;BME280;37130;55.670;37.596;2023-02-02T11:40:45;98570.66;;;0.34;72.61
51081;BME280;37130;55.670;37.596;2023-02-02T11:43:27;98562.19;;;0.25;72.85
51081;BME280;37130;55.670;37.596;2023-02-02T11:46:00;98576.06;;;0.24;72.80
51081;BME280;37130;55.670;37.596;2023-02-02T11:48:36;98566.47;;;0.27;72.57
51081;BME280;37130;55.670;37.596;2023-02-02T11:51:06;98388.81;;;-0.96;72.52
51081;BME280;37130;55.670;37.596;2023-02-02T11:53:43;98573.19;;;-0.02;73.14
51081;BME280;37130;55.670;37.596;2023-02-02T11:56:22;98582.91;;;-0.11;73.48
51081;BME280;37130;55.670;37.596;2023-02-02T11:58:53;98556.81;;;-0.08;73.89
51081;BME280;37130;55.670;37.596;2023-02-02T12:01:31;98567.59;;;0.15;74.06
51081;BME280;37130;55.670;37.596;2023-02-02T12:04:01;98514.31;;;-0.07;73.42
51081;BME280;37130;55.670;37.596;2023-02-02T12:09:03;98547.97;;;0.39;73.08
51081;BME280;37130;55.670;37.596;2023-02-02T12:11:42;98572.66;;;0.59;72.84
51081;BME280;37130;55.670;37.596;2023-02-02T12:14:38;98573.78;;;0.49;72.88
51081;BME280;37130;55.670;37.596;2023-02-02T12:28:38;98588.38;;;0.17;72.95
51081;BME280;37130;55.670;37.596;2023-02-02T12:36:27;98579.56;;;-0.16;73.65
51081;BME280;37130;55.670;37.596;2023-02-02T12:42:12;98580.38;;;-0.14;72.72
51081;BME280;37130;55.670;37.596;2023-02-02T12:47:27;98586.56;;;-0.20;72.94
51081;BME280;37130;55.670;37.596;2023-02-02T12:50:11;98547.38;;;-0.54;73.18
51081;BME280;37130;55.670;37.596;2023-02-02T13:01:06;98596.16;;;-0.22;73.38
51081;BME280;37130;55.670;37.596;2023-02-02T13:03:38;98597.31;;;-0.37;73.97
51081;BME280;37130;55.670;37.596;2023-02-02T13:09:32;98595.59;;;-0.36;73.28
51081;BME280;37130;55.670;37.596;2023-02-02T13:12:11;98598.06;;;-0.32;73.42
51081;BME280;37130;55.670;37.596;2023-02-02T13:14:51;98595.44;;;-0.30;73.65
51081;BME280;37130;55.670;37.596;2023-02-02T13:17:25;98579.00;;;-0.32;73.83
51081;BME280;37130;55.670;37.596;2023-02-02T13:19:59;98575.63;;;-0.36;73.41
51081;BME280;37130;55.670;37.596;2023-02-02T13:22:38;98589.31;;;-0.26;74.04
51081;BME280;37130;55.670;37.596;2023-02-02T13:25:25;98587.66;;;-0.30;73.69
51081;BME280;37130;55.670;37.596;2023-02-02T13:27:57;98581.53;;;-0.28;74.30
51081;BME280;37130;55.670;37.596;2023-02-02T13:30:37;98598.69;;;-0.19;74.12
51081;BME280;37130;55.670;37.596;2023-02-02T13:33:12;98561.78;;;-0.38;74.12
51081;BME280;37130;55.670;37.596;2023-02-02T13:35:50;98612.38;;;-0.09;74.27
51081;BME280;37130;55.670;37.596;2023-02-02T13:38:44;98584.06;;;-0.25;74.41
51081;BME280;37130;55.670;37.596;2023-02-02T13:41:45;98597.44;;;-0.43;74.36
51081;BME280;37130;55.670;37.596;2023-02-02T13:48:45;98571.72;;;-0.57;74.65
51081;BME280;37130;55.670;37.596;2023-02-02T13:53:56;98596.94;;;-0.63;76.40
51081;BME280;37130;55.670;37.596;2023-02-02T14:01:56;98604.66;;;-0.57;76.85
51081;BME280;37130;55.670;37.596;2023-02-02T14:04:30;98598.47;;;-0.52;76.29
51081;BME280;37130;55.670;37.596;2023-02-02T14:07:03;98560.13;;;-0.85;76.64
51081;BME280;37130;55.670;37.596;2023-02-02T14:09:34;98598.69;;;-0.62;76.72
51081;BME280;37130;55.670;37.596;2023-02-02T14:12:07;98603.00;;;-0.61;76.92
51081;BME280;37130;55.670;37.596;2023-02-02T14:14:37;98608.97;;;-0.56;77.02
51081;BME280;37130;55.670;37.596;2023-02-02T14:37:46;98625.56;;;-0.63;76.39
51081;BME280;37130;55.670;37.596;2023-02-02T14:40:28;98623.00;;;-0.67;76.43
51081;BME280;37130;55.670;37.596;2023-02-02T14:43:16;98634.13;;;-0.58;76.53
51081;BME280;37130;55.670;37.596;2023-02-02T14:48:45;98556.81;;;-0.94;76.15
51081;BME280;37130;55.670;37.596;2023-02-02T14:51:16;98631.31;;;-0.46;76.43
51081;BME280;37130;55.670;37.596;2023-02-02T14:53:53;98637.50;;;-0.53;76.22
51081;BME280;37130;55.670;37.596;2023-02-02T14:59:21;98549.34;;;-1.12;76.69
51081;BME280;37130;55.670;37.596;2023-02-02T15:02:46;98639.91;;;-0.42;76.62
51081;BME280;37130;55.670;37.596;2023-02-02T15:05:34;98652.06;;;-0.43;76.55
51081;BME280;37130;55.670;37.596;2023-02-02T15:08:20;98652.59;;;-0.26;76.88
51081;BME280;37130;55.670;37.596;2023-02-02T15:13:20;98556.88;;;-0.53;75.90
51081;BME280;37130;55.670;37.596;2023-02-02T15:16:00;98657.69;;;-0.19;76.30
51081;BME280;37130;55.670;37.596;2023-02-02T15:18:42;98663.09;;;-0.32;76.36
51081;BME280;37130;55.670;37.596;2023-02-02T15:21:13;98653.88;;;-0.48;76.74
51081;BME280;37130;55.670;37.596;2023-02-02T15:23:44;98646.63;;;-0.31;77.08